Time;durP1;ratioP1;P1;durP2;ratioP2;P2;SDS_P1;SDS_P2;PMS_P1;PMS_P2;Temp;Humidity;BMP_temperature;BMP_pressure;BME280_temperature;BME280_humidity;BME280_pressure;Samples;Min_cycle;Max_cycle;Signal;HPM_P1;HPM_P2
2022/05/19 00:02:04;;;;;;;3.95;2.28;;;;;;;19.34;55.15;97156.09;5016054;28;20199;-67
2022/05/19 00:04:29;;;;;;;4.10;2.47;;;;;;;19.15;55.78;97160.44;4998003;28;20263;-67
2022/05/19 00:06:55;;;;;;;2.22;2.10;;;;;;;18.99;56.31;97153.59;5015666;28;20278;-67
2022/05/19 00:09:21;;;;;;;4.38;2.10;;;;;;;19.07;56.54;97153.81;5015333;28;20636;-67
2022/05/19 00:11:47;;;;;;;2.25;2.00;;;;;;;18.92;57.27;97158.38;5030817;28;20211;-67
2022/05/19 00:14:14;;;;;;;4.53;2.38;;;;;;;19.15;56.10;97143.69;4998127;28;20317;-67
2022/05/19 00:16:40;;;;;;;2.22;2.03;;;;;;;19.26;55.14;97147.91;5015714;28;20249;-67
2022/05/19 00:19:06;;;;;;;3.05;2.08;;;;;;;19.01;55.42;97151.44;5015583;28;20235;-67
2022/05/19 00:21:32;;;;;;;3.38;1.98;;;;;;;18.96;55.09;97143.50;5015371;28;20620;-67
2022/05/19 00:23:57;;;;;;;2.80;2.00;;;;;;;19.02;54.91;97143.19;5014905;28;20192;-67
2022/05/19 00:26:23;;;;;;;3.95;2.25;;;;;;;19.07;54.43;97134.41;5015334;28;20187;-67
2022/05/19 00:28:48;;;;;;;2.22;2.10;;;;;;;19.01;54.15;97141.59;5015218;28;20198;-67
2022/05/19 00:31:14;;;;;;;3.40;2.00;;;;;;;18.94;53.85;97129.69;5015167;28;20191;-67
2022/05/19 00:33:40;;;;;;;5.63;2.13;;;;;;;18.96;53.71;97135.50;5015121;28;20191;-67
2022/05/19 00:36:11;;;;;;;2.00;1.80;;;;;;;19.06;53.61;97133.63;5012120;28;20211;-67
2022/05/19 00:38:38;;;;;;;2.08;1.90;;;;;;;18.91;53.87;97125.72;5010836;28;20222;-67
2022/05/19 00:41:04;;;;;;;2.53;1.92;;;;;;;18.78;53.87;97117.53;5030004;28;20337;-67
2022/05/19 00:43:35;;;;;;;2.73;2.03;;;;;;;18.64;54.60;97123.41;5015150;28;20270;-67
2022/05/19 00:46:08;;;;;;;2.50;1.88;;;;;;;18.60;54.83;97119.69;5015238;28;20249;-67
2022/05/19 00:48:45;;;;;;;2.75;1.77;;;;;;;18.57;54.49;97117.56;5015651;28;20202;-67
2022/05/19 00:51:12;;;;;;;2.45;1.75;;;;;;;18.70;54.57;97118.88;5014915;28;20203;-67
2022/05/19 00:53:51;;;;;;;2.87;1.90;;;;;;;18.68;54.51;97108.50;5014997;28;20187;-67
2022/05/19 00:56:27;;;;;;;3.13;1.88;;;;;;;18.51;54.50;97118.59;5014952;28;20520;-67
2022/05/19 00:59:06;;;;;;;2.63;1.90;;;;;;;18.55;54.50;97116.25;5015274;28;20265;-67
2022/05/19 01:01:38;;;;;;;2.97;2.50;;;;;;;18.57;54.30;97122.06;5015242;28;20171;-66
2022/05/19 01:04:10;;;;;;;2.50;2.20;;;;;;;18.53;54.53;97107.72;5014770;28;20267;-66
2022/05/19 01:06:38;;;;;;;3.90;1.85;;;;;;;18.43;54.56;97105.91;5014526;28;20266;-66
2022/05/19 01:09:12;;;;;;;3.77;2.13;;;;;;;18.35;54.67;97106.44;5014431;28;20209;-67
2022/05/19 01:11:38;;;;;;;2.08;1.90;;;;;;;18.37;54.28;97101.66;4986038;28;20234;-66
2022/05/19 01:14:05;;;;;;;2.00;1.90;;;;;;;18.37;54.36;97100.88;5014094;28;20597;-66
2022/05/19 01:16:31;;;;;;;2.63;2.40;;;;;;;18.31;54.47;97102.72;5014622;28;20187;-66
2022/05/19 01:18:58;;;;;;;2.03;1.77;;;;;;;18.35;54.58;97098.47;5014314;28;20277;-67
2022/05/19 01:21:27;;;;;;;2.80;2.00;;;;;;;18.34;54.83;97107.50;5013970;28;20199;-66
2022/05/19 01:24:05;;;;;;;2.90;2.30;;;;;;;18.20;55.00;97098.50;5014108;28;20183;-66
2022/05/19 01:26:39;;;;;;;3.35;2.13;;;;;;;18.25;54.93;97107.25;5013980;28;20199;-66
2022/05/19 01:29:04;;;;;;;2.38;2.15;;;;;;;18.26;54.84;97094.78;5014029;28;20191;-66
2022/05/19 01:31:37;;;;;;;2.10;2.00;;;;;;;18.10;55.16;97098.50;5014030;28;20202;-66
2022/05/19 01:34:05;;;;;;;6.30;2.40;;;;;;;18.12;54.95;97097.16;4996473;28;20238;-67
2022/05/19 01:36:31;;;;;;;2.10;1.90;;;;;;;18.01;55.27;97092.13;5003570;28;20292;-66
2022/05/19 01:39:05;;;;;;;2.67;1.80;;;;;;;18.02;55.37;97091.06;5011066;28;20648;-66
2022/05/19 01:42:13;;;;;;;2.23;1.87;;;;;;;17.95;55.18;97090.53;4999248;28;20171;-67
2022/05/19 01:44:57;;;;;;;1.70;1.60;;;;;;;18.06;55.03;97090.28;5014488;28;20277;-67
2022/05/19 01:47:50;;;;;;;2.38;2.17;;;;;;;18.06;55.10;97084.16;5013872;28;20273;-66
2022/05/19 01:50:31;;;;;;;5.13;2.10;;;;;;;18.00;55.21;97083.38;5013959;28;20221;-66
2022/05/19 01:53:19;;;;;;;2.27;2.03;;;;;;;18.02;54.93;97083.13;5013798;28;20593;-67
2022/05/19 01:56:02;;;;;;;3.67;1.80;;;;;;;18.05;55.01;97075.44;5013026;28;20184;-66
2022/05/19 01:58:49;;;;;;;3.53;2.10;;;;;;;17.93;55.25;97076.75;5013719;28;20639;-67
2022/05/19 02:01:17;;;;;;;3.43;2.20;;;;;;;17.80;55.54;97072.78;5013352;28;20613;-67
2022/05/19 02:04:07;;;;;;;2.40;2.20;;;;;;;17.79;55.75;97076.47;5013208;28;20547;-66
2022/05/19 02:06:43;;;;;;;3.00;2.40;;;;;;;17.82;55.67;97068.03;5013805;28;20183;-67
2022/05/19 02:09:18;;;;;;;2.23;1.80;;;;;;;17.83;55.62;97073.03;5013192;28;20602;-67
2022/05/19 02:11:48;;;;;;;3.03;2.00;;;;;;;17.72;55.51;97066.13;5013881;28;20207;-66
2022/05/19 02:14:18;;;;;;;2.17;2.07;;;;;;;17.82;55.41;97068.03;5013729;28;20175;-67
2022/05/19 02:16:44;;;;;;;1.90;1.80;;;;;;;17.78;55.50;97070.38;5013444;28;20183;-67
2022/05/19 02:19:13;;;;;;;3.07;2.00;;;;;;;17.71;55.53;97071.72;5013526;28;20223;-67
2022/05/19 02:21:39;;;;;;;3.97;2.10;;;;;;;17.73;55.20;97075.69;5008389;28;20239;-66
2022/05/19 02:24:08;;;;;;;2.03;1.90;;;;;;;17.81;54.90;97080.47;5013161;28;20191;-66
2022/05/19 02:26:37;;;;;;;2.40;2.20;;;;;;;17.88;54.78;97080.22;5012637;28;20221;-66
2022/05/19 02:29:07;;;;;;;4.17;2.10;;;;;;;17.70;54.82;97081.53;5013236;28;20245;-66
2022/05/19 02:31:32;;;;;;;3.80;2.07;;;;;;;17.74;54.95;97081.78;5013363;28;20230;-66
2022/05/19 02:33:58;;;;;;;2.90;1.80;;;;;;;17.76;55.09;97077.81;5012991;28;20671;-67
2022/05/19 02:36:23;;;;;;;2.00;1.90;;;;;;;17.61;55.48;97084.97;5001813;28;20192;-66
2022/05/19 02:38:49;;;;;;;4.07;2.20;;;;;;;17.70;55.38;97083.38;5012850;28;20184;-66
2022/05/19 02:41:14;;;;;;;2.20;2.03;;;;;;;17.59;55.92;97082.56;5013351;28;20187;-66
2022/05/19 02:43:39;;;;;;;4.97;2.50;;;;;;;17.41;56.46;97083.03;5012474;28;20274;-66
2022/05/19 02:46:05;;;;;;;2.10;2.00;;;;;;;17.40;56.11;97079.59;5013188;28;20178;-66
2022/05/19 02:48:32;;;;;;;2.07;1.90;;;;;;;17.44;56.14;97090.50;5012802;28;20187;-66
2022/05/19 02:50:59;;;;;;;2.10;1.80;;;;;;;17.37;56.15;97084.63;5013132;28;20203;-66
2022/05/19 02:53:25;;;;;;;2.20;2.00;;;;;;;17.40;56.01;97082.25;5012661;28;20198;-66
2022/05/19 02:55:51;;;;;;;2.47;2.27;;;;;;;17.27;56.42;97079.31;5028462;28;20547;-66
2022/05/19 02:58:16;;;;;;;2.30;1.90;;;;;;;17.28;56.28;97083.53;4995317;28;20191;-66
2022/05/19 03:00:46;;;;;;;4.87;2.30;;;;;;;17.32;56.32;97082.78;5013108;28;20708;-66
2022/05/19 03:03:11;;;;;;;4.20;2.37;;;;;;;17.34;56.28;97083.28;5012720;28;20608;-67
2022/05/19 03:05:37;;;;;;;3.73;2.43;;;;;;;17.36;56.35;97080.38;5012515;28;20222;-66
2022/05/19 03:08:04;;;;;;;3.67;2.20;;;;;;;17.25;56.82;97087.53;5012615;28;20191;-66
2022/05/19 03:10:29;;;;;;;2.60;2.40;;;;;;;17.32;56.47;97084.63;5012705;28;20235;-66
2022/05/19 03:12:56;;;;;;;2.87;2.43;;;;;;;17.25;56.50;97087.53;5012863;28;20218;-66
2022/05/19 03:15:21;;;;;;;3.87;2.20;;;;;;;17.25;56.68;97078.78;5015389;28;20663;-67
2022/05/19 03:17:47;;;;;;;3.77;2.50;;;;;;;17.12;57.01;97073.97;5016413;28;20227;-66
2022/05/19 03:20:13;;;;;;;5.17;2.30;;;;;;;17.16;56.38;97077.72;5017048;28;20643;-67
2022/05/19 03:22:39;;;;;;;2.53;2.10;;;;;;;17.12;56.66;97073.97;5017034;28;20233;-66
2022/05/19 03:25:06;;;;;;;2.90;2.10;;;;;;;17.02;56.75;97070.25;5016869;28;20187;-68
2022/05/19 03:27:31;;;;;;;2.13;2.03;;;;;;;17.02;56.49;97066.78;5015716;28;20190;-66
2022/05/19 03:29:57;;;;;;;2.63;2.20;;;;;;;16.99;56.46;97069.97;5021300;28;20188;-67
2022/05/19 03:32:22;;;;;;;5.87;2.40;;;;;;;17.03;56.04;97071.03;4997312;28;20675;-67
2022/05/19 03:34:48;;;;;;;2.40;2.17;;;;;;;17.01;56.20;97068.66;5008414;28;20270;-67
2022/05/19 03:37:13;;;;;;;2.57;2.00;;;;;;;17.00;56.27;97075.00;4984640;28;20221;-67
2022/05/19 03:39:39;;;;;;;2.20;1.83;;;;;;;16.92;56.57;97072.84;5016065;28;20636;-67
2022/05/19 03:42:07;;;;;;;3.47;2.17;;;;;;;16.90;56.26;97074.16;4998503;28;20192;-66
2022/05/19 03:44:33;;;;;;;2.53;2.27;;;;;;;16.91;56.40;97076.56;5014720;28;20183;-66
2022/05/19 03:46:58;;;;;;;2.30;2.10;;;;;;;17.04;56.24;97078.72;5016106;28;20199;-67
2022/05/19 03:49:24;;;;;;;3.00;2.00;;;;;;;17.14;55.98;97069.22;5016238;28;20187;-66
2022/05/19 03:51:49;;;;;;;3.30;2.73;;;;;;;17.04;56.75;97073.44;5015581;28;20650;-68
2022/05/19 03:54:14;;;;;;;2.07;1.97;;;;;;;17.04;56.26;97075.28;5015974;28;20194;-67
2022/05/19 03:56:40;;;;;;;5.80;2.30;;;;;;;17.17;56.59;97076.63;5016144;28;20179;-67
2022/05/19 03:59:05;;;;;;;3.20;2.50;;;;;;;17.40;56.16;97079.59;5016021;28;20198;-67
2022/05/19 04:01:31;;;;;;;4.07;2.07;;;;;;;17.38;56.50;97078.28;5016168;28;20262;-67
2022/05/19 04:03:56;;;;;;;3.93;2.80;;;;;;;17.25;56.57;97081.44;5015631;28;20195;-68
2022/05/19 04:06:22;;;;;;;2.53;2.33;;;;;;;17.26;56.64;97073.22;5015385;28;20594;-68
2022/05/19 04:08:48;;;;;;;7.57;2.60;;;;;;;17.37;56.43;97082.00;5015804;28;20270;-66
2022/05/19 04:11:14;;;;;;;2.70;2.50;;;;;;;17.37;56.59;97090.75;5015764;28;20213;-67
2022/05/19 04:13:40;;;;;;;3.60;2.47;;;;;;;17.51;56.17;97088.38;5015764;28;20191;-67
2022/05/19 04:16:05;;;;;;;4.43;2.33;;;;;;;17.63;56.22;97083.63;5014828;28;20183;-67
2022/05/19 04:18:30;;;;;;;2.37;2.10;;;;;;;17.72;55.79;97083.94;4997595;28;20219;-67
2022/05/19 04:20:56;;;;;;;4.17;2.60;;;;;;;17.83;55.74;97088.94;5015679;28;20195;-67
2022/05/19 04:23:22;;;;;;;3.33;2.57;;;;;;;17.78;56.07;97091.59;5015018;28;20214;-67
2022/05/19 04:25:47;;;;;;;2.50;2.30;;;;;;;17.81;56.20;97090.28;5014516;28;20313;-67
2022/05/19 04:28:13;;;;;;;2.20;2.10;;;;;;;18.02;55.77;97093.72;5014887;28;20664;-67
2022/05/19 04:30:41;;;;;;;2.93;2.73;;;;;;;17.94;56.00;97094.28;5015128;28;20207;-67
2022/05/19 04:33:07;;;;;;;2.30;2.10;;;;;;;18.08;55.68;97101.41;5015287;28;20187;-67
2022/05/19 04:35:32;;;;;;;3.75;2.15;;;;;;;18.31;55.23;97091.31;5011788;28;20194;-67
2022/05/19 04:38:00;;;;;;;2.60;2.40;;;;;;;18.18;55.70;97103.25;5015194;28;20187;-67
2022/05/19 04:40:26;;;;;;;3.08;2.33;;;;;;;17.95;56.17;97104.59;5015675;28;20246;-67
2022/05/19 04:42:53;;;;;;;3.40;2.20;;;;;;;18.13;56.30;97105.94;5015422;28;20584;-67
2022/05/19 04:45:19;;;;;;;2.63;2.35;;;;;;;18.49;55.09;97107.47;5014883;28;20187;-66
2022/05/19 04:47:45;;;;;;;3.75;2.40;;;;;;;18.71;54.67;97103.75;5015051;28;20251;-67
2022/05/19 04:50:12;;;;;;;3.03;2.22;;;;;;;18.73;54.49;97113.00;5014851;28;20198;-67
2022/05/19 04:52:38;;;;;;;3.38;2.22;;;;;;;19.10;53.83;97117.94;5015153;28;20191;-67
2022/05/19 04:55:04;;;;;;;4.47;2.53;;;;;;;19.55;52.71;97114.28;4997231;28;20210;-67
2022/05/19 04:57:30;;;;;;;2.97;2.20;;;;;;;19.59;52.70;97122.50;5015489;28;20179;-67
2022/05/19 04:59:56;;;;;;;2.92;2.13;;;;;;;19.72;52.07;97119.22;5015060;28;20198;-67
2022/05/19 05:02:21;;;;;;;2.10;2.00;;;;;;;19.80;52.12;97121.28;5013707;28;20187;-67
2022/05/19 05:04:46;;;;;;;3.63;2.47;;;;;;;19.78;51.42;97116.22;5014806;28;20191;-68
2022/05/19 05:07:12;;;;;;;3.28;2.08;;;;;;;20.04;50.97;97124.84;5014815;28;20187;-67
2022/05/19 05:09:37;;;;;;;4.28;2.50;;;;;;;20.22;50.42;97118.03;5014573;28;20187;-66
2022/05/19 05:12:03;;;;;;;4.65;2.10;;;;;;;20.40;50.24;97129.88;5014786;28;20203;-68
2022/05/19 05:14:29;;;;;;;3.60;2.00;;;;;;;20.88;49.34;97128.06;5014556;28;20678;-66
2022/05/19 05:16:55;;;;;;;2.75;2.30;;;;;;;20.87;48.33;97115.81;5014990;28;20215;-68
2022/05/19 05:19:23;;;;;;;2.20;2.00;;;;;;;20.89;48.48;97124.31;5014809;28;20635;-67
2022/05/19 05:21:51;;;;;;;3.95;2.20;;;;;;;20.83;48.35;97118.25;5014495;28;20274;-67
2022/05/19 05:24:17;;;;;;;2.83;2.53;;;;;;;21.25;48.11;97135.38;5014506;28;20191;-67
2022/05/19 05:26:43;;;;;;;2.35;1.95;;;;;;;21.49;47.74;97134.25;5013910;28;20663;-67
2022/05/19 05:29:08;;;;;;;4.07;2.22;;;;;;;21.20;47.80;97132.75;5014483;28;20200;-67
2022/05/19 05:31:33;;;;;;;2.60;2.10;;;;;;;21.32;48.17;97127.81;5013859;28;20377;-67
2022/05/19 05:33:59;;;;;;;2.10;1.95;;;;;;;21.41;48.08;97126.88;5008493;28;20184;-67
2022/05/19 05:36:24;;;;;;;2.00;1.90;;;;;;;21.47;48.28;97132.94;5001402;28;20652;-68
2022/05/19 05:38:49;;;;;;;2.72;2.38;;;;;;;21.28;48.55;97129.47;5013917;28;20199;-68
2022/05/19 05:41:16;;;;;;;2.38;2.10;;;;;;;21.45;48.20;97129.78;5014372;28;20198;-67
2022/05/19 05:43:41;;;;;;;2.65;2.00;;;;;;;21.32;48.16;97122.47;5014084;28;20302;-68
2022/05/19 05:46:09;;;;;;;2.30;2.08;;;;;;;21.41;48.48;97126.88;4996638;28;20211;-68
2022/05/19 05:48:36;;;;;;;2.08;1.98;;;;;;;21.67;48.08;97129.22;5013421;28;20597;-67
2022/05/19 05:51:12;;;;;;;3.78;2.20;;;;;;;21.45;48.71;97119.91;5013120;28;20539;-67
2022/05/19 05:53:40;;;;;;;3.10;2.20;;;;;;;21.53;48.94;97121.91;5014097;28;20175;-67
2022/05/19 05:56:07;;;;;;;3.38;2.30;;;;;;;21.81;49.06;97127.41;5014279;28;20245;-67
2022/05/19 05:58:33;;;;;;;4.45;2.60;;;;;;;21.77;49.27;97121.06;5014015;28;20282;-68
2022/05/19 06:00:58;;;;;;;4.00;3.65;;;;;;;21.97;48.35;97129.56;5013576;28;20222;-68
2022/05/19 06:03:24;;;;;;;2.45;2.20;;;;;;;22.22;48.70;97133.72;5013943;28;20282;-67
2022/05/19 06:05:50;;;;;;;2.97;2.42;;;;;;;22.40;48.56;97124.84;5013840;28;20175;-67
2022/05/19 06:08:16;;;;;;;5.28;2.80;;;;;;;22.18;48.59;97137.28;5013816;28;20277;-67
2022/05/19 06:10:41;;;;;;;3.33;2.45;;;;;;;22.37;48.52;97132.66;5013560;28;20558;-67
2022/05/19 06:13:07;;;;;;;2.42;2.20;;;;;;;22.61;48.33;97124.50;5013573;28;20183;-68
2022/05/19 06:15:32;;;;;;;3.72;2.65;;;;;;;22.71;47.91;97125.13;5013287;28;20187;-68
2022/05/19 06:17:58;;;;;;;3.78;2.35;;;;;;;22.60;49.02;97126.38;5013042;28;20306;-67
2022/05/19 06:20:26;;;;;;;2.97;2.72;;;;;;;22.67;48.84;97129.47;5013546;28;20191;-67
2022/05/19 06:22:52;;;;;;;4.30;2.50;;;;;;;22.93;48.09;97126.31;5013176;28;20222;-67
2022/05/19 06:25:20;;;;;;;3.35;2.75;;;;;;;22.62;49.01;97132.22;5012475;28;20589;-68
2022/05/19 06:27:49;;;;;;;3.20;2.80;;;;;;;22.53;49.68;97125.97;5012943;28;20180;-68
2022/05/19 06:30:15;;;;;;;3.08;2.50;;;;;;;22.96;48.63;97134.53;5013116;28;20210;-68
2022/05/19 06:32:42;;;;;;;6.15;2.80;;;;;;;22.97;48.31;97132.66;5013789;28;20175;-68
2022/05/19 06:35:08;;;;;;;2.80;2.60;;;;;;;22.88;49.11;97135.25;5004424;28;20518;-68
2022/05/19 06:37:34;;;;;;;4.95;2.83;;;;;;;23.00;49.37;97134.75;5012592;28;20535;-68
2022/05/19 06:40:00;;;;;;;2.97;2.70;;;;;;;23.05;49.96;97138.13;5010912;28;20179;-70
2022/05/19 06:42:25;;;;;;;4.45;2.67;;;;;;;23.33;48.95;97141.56;5012787;28;20518;-68
2022/05/19 06:44:51;;;;;;;2.95;2.60;;;;;;;23.56;48.64;97145.13;5017101;28;20191;-68
2022/05/19 06:47:16;;;;;;;4.43;2.70;;;;;;;23.39;48.71;97142.25;5012845;28;20200;-68
2022/05/19 06:49:44;;;;;;;3.17;2.58;;;;;;;23.47;48.58;97139.69;5012475;28;20261;-68
2022/05/19 06:52:21;;;;;;;6.18;2.35;;;;;;;23.62;49.15;97133.22;5012297;28;20202;-69
2022/05/19 06:54:48;;;;;;;3.92;2.88;;;;;;;23.32;49.59;97131.94;5000761;28;20179;-68
2022/05/19 06:57:15;;;;;;;3.72;2.85;;;;;;;22.92;50.02;97138.91;5011654;28;20187;-68
2022/05/19 06:59:41;;;;;;;2.95;2.65;;;;;;;22.82;50.09;97138.31;5011259;28;20663;-68
2022/05/19 07:02:09;;;;;;;3.85;2.53;;;;;;;22.84;50.51;97147.63;5012365;28;20661;-69
2022/05/19 07:04:35;;;;;;;6.22;2.65;;;;;;;23.20;49.95;97145.03;5019978;28;20249;-68
2022/05/19 07:07:02;;;;;;;5.50;2.90;;;;;;;23.10;50.34;97142.56;5012526;28;20188;-68
2022/05/19 07:09:28;;;;;;;3.88;2.70;;;;;;;23.44;49.80;97142.13;5027903;28;20191;-68
2022/05/19 07:11:54;;;;;;;4.43;2.53;;;;;;;23.52;49.90;97136.88;5012252;28;20277;-69
2022/05/19 07:14:19;;;;;;;5.03;2.30;;;;;;;23.76;48.96;97142.00;5012249;28;20206;-68
2022/05/19 07:16:48;;;;;;;3.25;2.20;;;;;;;24.09;48.16;97131.84;5004479;28;20195;-68
2022/05/19 07:21:57;;;;;;;2.85;2.58;;;;;;;24.30;47.98;97140.19;5004732;28;20222;-68
2022/05/19 07:24:23;;;;;;;5.55;2.55;;;;;;;24.20;47.83;97146.59;5012400;28;20266;-68
2022/05/19 07:26:54;;;;;;;3.78;2.65;;;;;;;24.35;47.28;97148.91;5012081;28;20195;-68
2022/05/19 07:29:21;;;;;;;4.07;2.80;;;;;;;24.45;46.79;97142.53;5011925;28;20179;-69
2022/05/19 07:31:48;;;;;;;3.70;2.55;;;;;;;24.43;46.17;97150.06;5011916;28;20207;-69
2022/05/19 07:34:16;;;;;;;3.65;2.20;;;;;;;24.60;44.87;97142.13;4998188;28;20191;-69
2022/05/19 07:36:41;;;;;;;5.70;2.35;;;;;;;24.74;44.54;97147.41;5011989;28;20183;-68
2022/05/19 07:39:08;;;;;;;4.60;2.40;;;;;;;24.91;44.48;97138.66;5011945;28;20187;-68
2022/05/19 07:41:34;;;;;;;3.38;2.20;;;;;;;25.09;43.17;97138.41;5002321;28;20188;-68
2022/05/19 07:44:00;;;;;;;4.15;2.60;;;;;;;24.94;44.26;97138.03;5009942;28;20628;-69
2022/05/19 07:46:27;;;;;;;3.47;2.53;;;;;;;24.96;44.03;97142.00;5012492;28;20187;-67
2022/05/19 07:48:56;;;;;;;3.00;2.50;;;;;;;25.36;44.56;97137.38;5011985;28;20641;-68
2022/05/19 07:51:22;;;;;;;6.05;2.70;;;;;;;25.42;44.53;97143.38;5011657;28;20207;-68
2022/05/19 07:53:49;;;;;;;3.38;3.08;;;;;;;25.48;44.33;97144.81;5012697;28;20191;-68
2022/05/19 07:56:15;;;;;;;4.95;2.90;;;;;;;25.55;44.24;97145.94;5012191;28;20277;-69
2022/05/19 07:58:41;;;;;;;3.45;2.85;;;;;;;25.39;44.35;97146.69;5011792;28;20604;-69
2022/05/19 08:01:07;;;;;;;2.80;2.60;;;;;;;25.53;44.58;97150.03;5013755;28;20273;-68
2022/05/19 08:03:33;;;;;;;2.80;2.60;;;;;;;25.76;43.71;97139.97;5015870;28;20276;-68
2022/05/19 08:05:58;;;;;;;2.60;2.40;;;;;;;25.45;44.64;97142.75;5015987;28;20234;-68
2022/05/19 08:08:24;;;;;;;3.38;2.50;;;;;;;25.55;44.12;97140.56;5015298;28;20671;-68
2022/05/19 08:10:49;;;;;;;3.25;2.50;;;;;;;25.77;43.86;97138.88;5015622;28;20199;-69
2022/05/19 08:15:59;;;;;;;7.20;2.60;;;;;;;25.97;44.00;97140.94;4996314;28;20210;-68
2022/05/19 08:18:26;;;;;;;3.00;2.50;;;;;;;25.99;43.84;97144.09;4995966;28;20231;-68
2022/05/19 08:20:57;;;;;;;2.65;2.45;;;;;;;26.05;43.71;97142.81;5002280;28;20226;-68
2022/05/19 08:23:28;;;;;;;2.50;2.30;;;;;;;25.89;43.91;97147.09;5008985;28;20203;-69
2022/05/19 08:25:55;;;;;;;4.22;2.70;;;;;;;26.07;43.92;97140.63;5014478;28;20632;-68
2022/05/19 08:28:21;;;;;;;3.72;2.70;;;;;;;26.34;43.78;97148.34;5015133;28;20266;-69
2022/05/19 08:30:51;;;;;;;3.92;2.85;;;;;;;26.12;44.58;97142.34;5014770;28;20249;-68
2022/05/19 08:33:19;;;;;;;6.18;2.67;;;;;;;26.15;44.81;97147.88;5008933;28;20261;-68
2022/05/19 08:35:45;;;;;;;3.95;2.75;;;;;;;26.25;44.88;97142.19;5015404;28;20620;-68
2022/05/19 08:38:10;;;;;;;3.20;2.83;;;;;;;26.42;44.15;97142.16;4997026;28;20241;-68
2022/05/19 08:40:52;;;;;;;3.47;2.45;;;;;;;26.50;44.23;97135.19;5014842;28;20615;-66
2022/05/19 08:43:23;;;;;;;2.70;2.50;;;;;;;26.67;43.79;97142.41;5008930;28;20183;-68
2022/05/19 08:45:53;;;;;;;3.42;2.20;;;;;;;26.82;43.02;97141.88;5015072;28;20230;-68
2022/05/19 08:48:21;;;;;;;3.63;2.50;;;;;;;26.88;43.81;97138.72;5008918;28;20214;-70
2022/05/19 08:51:06;;;;;;;4.25;2.50;;;;;;;26.85;44.10;97142.03;5014347;28;20215;-68
2022/05/19 08:53:35;;;;;;;2.80;2.60;;;;;;;27.09;43.23;97136.09;5015005;28;20183;-68
2022/05/19 08:56:21;;;;;;;11.25;4.50;;;;;;;27.19;43.81;97133.06;5014207;28;20210;-66
2022/05/19 08:59:11;;;;;;;3.90;2.97;;;;;;;26.89;44.01;97132.25;5014451;28;20185;-68
2022/05/19 09:01:58;;;;;;;5.03;3.10;;;;;;;26.88;44.19;97125.28;5013803;28;20190;-68
2022/05/19 09:04:31;;;;;;;6.30;4.10;;;;;;;27.32;43.71;97133.91;4989179;28;20689;-68
2022/05/19 09:10:12;;;;;;;5.35;2.53;;;;;;;27.42;44.14;97130.06;5014647;28;20202;-68
2022/05/19 09:12:39;;;;;;;3.97;2.63;;;;;;;27.35;43.58;97140.56;5014661;28;20199;-65
2022/05/19 09:15:08;;;;;;;2.83;2.60;;;;;;;27.53;43.92;97123.22;5014017;28;20211;-68
2022/05/19 09:17:38;;;;;;;3.85;2.50;;;;;;;27.79;43.21;97126.50;5014297;28;20255;-67
2022/05/19 09:20:14;;;;;;;3.45;2.28;;;;;;;27.41;43.34;97125.81;5013866;28;20644;-65
2022/05/19 09:22:40;;;;;;;2.53;2.15;;;;;;;27.50;44.22;97123.81;5013968;28;20534;-68
2022/05/19 09:25:09;;;;;;;3.60;2.50;;;;;;;27.57;43.29;97124.13;5013405;28;20194;-65
2022/05/19 09:27:40;;;;;;;4.68;2.47;;;;;;;27.87;43.32;97124.84;5012955;28;20262;-68
2022/05/19 09:30:13;;;;;;;3.30;2.40;;;;;;;27.78;43.35;97119.53;5029158;28;20207;-68
2022/05/19 09:32:45;;;;;;;2.30;2.05;;;;;;;28.04;41.90;97119.31;5008941;28;20199;-69
2022/05/19 09:35:27;;;;;;;2.45;2.28;;;;;;;27.25;43.75;97125.59;5013419;28;20185;-69
2022/05/19 09:38:13;;;;;;;3.95;2.20;;;;;;;27.80;43.23;97116.50;5002877;28;20235;-68
2022/05/19 09:40:46;;;;;;;5.80;2.50;;;;;;;27.90;43.98;97118.81;5012986;28;20187;-68
2022/05/19 09:43:20;;;;;;;2.90;2.58;;;;;;;27.91;43.80;97113.09;5013898;28;20183;-68
2022/05/19 09:45:49;;;;;;;3.75;2.30;;;;;;;27.86;43.80;97123.28;5013403;28;20191;-66
2022/05/19 09:48:19;;;;;;;2.70;2.50;;;;;;;27.74;43.84;97126.69;5013162;28;20220;-67
2022/05/19 09:50:50;;;;;;;4.13;2.50;;;;;;;27.92;44.51;97130.06;5011943;28;20206;-66
2022/05/19 09:53:26;;;;;;;5.15;2.20;;;;;;;28.27;43.28;97122.44;5010985;28;20191;-66
2022/05/19 09:56:06;;;;;;;5.05;3.03;;;;;;;28.16;43.49;97132.88;4987006;28;20182;-66
2022/05/19 09:58:36;;;;;;;2.55;2.35;;;;;;;27.99;43.89;97133.78;5013433;28;20518;-67
2022/05/19 10:01:15;;;;;;;3.05;2.70;;;;;;;28.11;43.20;97125.75;4994118;28;20213;-67
2022/05/19 10:03:55;;;;;;;2.95;2.72;;;;;;;28.13;43.61;97130.84;5012994;28;20228;-66
2022/05/19 10:06:24;;;;;;;2.30;2.20;;;;;;;28.20;44.60;97141.09;5013339;28;20178;-67
2022/05/19 10:09:07;;;;;;;3.28;2.65;;;;;;;28.22;44.80;97136.94;5013476;28;20206;-67
2022/05/19 10:11:32;;;;;;;4.95;2.40;;;;;;;28.36;43.85;97121.25;5013104;28;20203;-67
2022/05/19 10:14:08;;;;;;;5.60;2.95;;;;;;;27.81;45.65;97126.19;5012905;28;20221;-67
2022/05/19 10:16:50;;;;;;;3.13;2.53;;;;;;;27.43;46.58;97126.25;5013180;28;20190;-68
2022/05/19 10:19:50;;;;;;;12.75;2.58;;;;;;;27.75;45.46;97120.19;4995514;28;20234;-67
2022/05/19 10:22:34;;;;;;;3.03;2.70;;;;;;;28.25;45.31;97124.72;4991864;28;20260;-67
2022/05/19 10:25:17;;;;;;;3.83;2.55;;;;;;;28.39;44.37;97117.88;5012158;28;20187;-68
2022/05/19 10:31:03;;;;;;;2.80;2.60;;;;;;;27.35;45.63;97110.94;5012760;28;20202;-67
2022/05/19 10:33:39;;;;;;;3.30;2.60;;;;;;;27.31;46.39;97108.88;5004689;28;20285;-67
2022/05/19 10:36:52;;;;;;;3.50;2.78;;;;;;;27.58;46.69;97104.97;5011947;28;20551;-68
2022/05/19 10:39:56;;;;;;;4.15;2.70;;;;;;;27.26;46.57;97108.28;4917248;29;20201;-67
2022/05/19 10:42:40;;;;;;;3.95;2.60;;;;;;;27.47;46.70;97100.25;4951525;29;20260;-67
2022/05/19 10:45:05;;;;;;;5.38;2.88;;;;;;;27.84;47.20;97099.34;5009140;28;20195;-67
2022/05/19 10:47:56;;;;;;;5.95;2.80;;;;;;;28.14;46.27;97094.69;5012774;28;20237;-67
2022/05/19 10:50:30;;;;;;;5.60;2.83;;;;;;;27.92;46.30;97090.38;5003733;28;20645;-67
2022/05/19 10:53:23;;;;;;;3.00;2.80;;;;;;;28.17;45.62;97093.22;5002229;28;20218;-67
2022/05/19 10:56:18;;;;;;;4.15;2.78;;;;;;;28.03;45.37;97091.56;4997956;28;20261;-67
2022/05/19 10:59:09;;;;;;;3.08;2.78;;;;;;;27.91;45.47;97088.03;4977691;28;20196;-67
2022/05/19 11:01:37;;;;;;;3.88;2.80;;;;;;;28.07;45.73;97087.09;4996754;28;20512;-67
2022/05/19 11:04:27;;;;;;;3.13;2.92;;;;;;;27.96;44.97;97087.84;4996862;28;20592;-67
2022/05/19 11:07:11;;;;;;;4.78;2.88;;;;;;;28.01;45.23;97082.25;4994682;28;20264;-67
2022/05/19 11:09:43;;;;;;;3.13;2.90;;;;;;;28.22;44.38;97074.91;5012329;28;20659;-67
2022/05/19 11:12:29;;;;;;;3.28;2.92;;;;;;;28.21;43.96;97077.94;5012142;28;20656;-67
2022/05/19 11:15:20;;;;;;;3.58;2.70;;;;;;;28.47;44.13;97079.25;5012375;28;20191;-67
2022/05/19 11:18:23;;;;;;;4.40;2.72;;;;;;;28.87;42.92;97075.91;5012130;28;20247;-67
2022/05/19 11:21:23;;;;;;;3.40;3.03;;;;;;;28.65;42.79;97068.22;4991003;28;20199;-68
2022/05/19 11:23:51;;;;;;;6.35;3.17;;;;;;;28.69;43.27;97066.47;4990850;28;20567;-67
2022/05/19 11:26:28;;;;;;;7.57;2.70;;;;;;;28.66;43.15;97070.59;5011523;28;20261;-67
2022/05/19 11:29:06;;;;;;;4.60;3.28;;;;;;;28.65;43.39;97066.31;5012441;28;20651;-67
2022/05/19 11:31:53;;;;;;;4.88;3.28;;;;;;;28.53;43.88;97063.63;5007469;28;20199;-67
2022/05/19 11:34:31;;;;;;;3.60;3.28;;;;;;;28.38;44.01;97064.28;5011748;28;20179;-67
2022/05/19 11:37:21;;;;;;;4.38;2.90;;;;;;;28.53;43.96;97063.63;5015756;28;20183;-67
2022/05/19 11:39:58;;;;;;;5.88;3.05;;;;;;;28.87;43.00;97060.50;5015887;28;20187;-67
2022/05/19 11:42:29;;;;;;;4.10;3.22;;;;;;;28.80;42.69;97056.81;5015773;28;20672;-67
2022/05/19 11:44:54;;;;;;;4.38;3.05;;;;;;;28.94;42.57;97066.16;5015915;28;20538;-67
2022/05/19 11:56:27;;;;;;;5.88;2.70;;;;;;;29.12;42.04;97055.09;4991901;28;20206;-67
2022/05/19 11:58:53;;;;;;;4.50;2.85;;;;;;;28.91;42.28;97064.13;5015429;28;20286;-67
2022/05/19 12:01:23;;;;;;;3.78;3.30;;;;;;;28.74;42.41;97060.88;5015892;28;20187;-67
2022/05/19 12:04:06;;;;;;;3.80;2.92;;;;;;;28.80;41.81;97054.13;5015761;28;20187;-67
2022/05/19 12:06:45;;;;;;;3.13;2.63;;;;;;;28.68;41.91;97052.19;5015260;28;20175;-67
2022/05/19 12:09:38;;;;;;;3.40;3.10;;;;;;;28.63;42.51;97044.31;5015592;28;20584;-67
2022/05/19 12:12:14;;;;;;;3.80;3.30;;;;;;;28.84;42.54;97042.31;5015176;28;20213;-67